Time;durP1;ratioP1;P1;durP2;ratioP2;P2;SDS_P1;SDS_P2;PMS_P1;PMS_P2;Temp;Humidity;BMP_temperature;BMP_pressure;BME280_temperature;BME280_humidity;BME280_pressure;Samples;Min_cycle;Max_cycle;Signal;HPM_P1;HPM_P2
2022/07/02 00:00:02;;;;;;;5.53;3.72;;;14.00;99.90;;;;;;4822434;29;20054;-67
2022/07/02 00:02:42;;;;;;;6.53;3.95;;;14.00;99.90;;;;;;4826160;29;20492;-67
2022/07/02 00:05:11;;;;;;;;;;;14.00;99.90;;;;;;4848421;29;20050;-66
2022/07/02 00:07:39;;;;;;;5.85;3.83;;;14.00;99.90;;;;;;4836934;29;19935;-67
2022/07/02 00:10:06;;;;;;;6.22;3.75;;;14.00;99.90;;;;;;4840342;29;20500;-67
2022/07/02 00:12:34;;;;;;;9.18;4.57;;;13.90;99.90;;;;;;4847378;29;20807;-67
2022/07/02 00:15:01;;;;;;;6.82;3.97;;;14.00;99.90;;;;;;4871021;29;20152;-67
2022/07/02 00:17:28;;;;;;;7.18;4.32;;;13.90;99.90;;;;;;4848597;29;20417;-67
2022/07/02 00:19:56;;;;;;;6.10;4.40;;;13.90;99.90;;;;;;4843090;29;20519;-67
2022/07/02 00:22:25;;;;;;;5.60;3.72;;;13.80;99.90;;;;;;4845358;29;20539;-67
2022/07/02 00:24:52;;;;;;;5.25;3.97;;;13.80;99.90;;;;;;4855954;29;20568;-68
2022/07/02 00:27:20;;;;;;;7.93;4.05;;;13.70;99.90;;;;;;4847499;29;20544;-67
2022/07/02 00:30:01;;;;;;;6.38;4.10;;;13.70;99.90;;;;;;4852931;29;20417;-68
2022/07/02 00:32:31;;;;;;;7.65;4.05;;;13.60;99.90;;;;;;4837886;29;20154;-67
2022/07/02 00:35:07;;;;;;;5.80;4.18;;;13.60;99.90;;;;;;4837945;29;20128;-67
2022/07/02 00:37:36;;;;;;;6.60;4.20;;;13.60;99.90;;;;;;4837995;29;20398;-67
2022/07/02 00:40:08;;;;;;;5.78;4.28;;;13.50;99.90;;;;;;4850144;29;20603;-68
2022/07/02 00:42:36;;;;;;;6.00;4.35;;;13.50;99.90;;;;;;4836692;29;20057;-66
2022/07/02 00:45:05;;;;;;;5.53;4.30;;;13.50;99.90;;;;;;4855712;29;20580;-67
2022/07/02 00:47:33;;;;;;;5.90;4.25;;;13.50;99.90;;;;;;4854086;29;20094;-67
2022/07/02 00:50:04;;;;;;;6.10;4.03;;;13.40;99.90;;;;;;4852076;29;20049;-66
2022/07/02 00:52:31;;;;;;;5.70;4.43;;;13.40;99.90;;;;;;4856646;29;20054;-66
2022/07/02 00:54:59;;;;;;;6.00;3.97;;;13.30;99.90;;;;;;4841962;29;20136;-67
2022/07/02 00:57:26;;;;;;;6.57;4.47;;;13.30;99.90;;;;;;4841508;29;20114;-67
2022/07/02 00:59:54;;;;;;;7.65;4.40;;;13.30;99.90;;;;;;4843375;29;20064;-67
2022/07/02 01:02:22;;;;;;;6.43;4.38;;;13.20;99.90;;;;;;4842502;29;20060;-68
2022/07/02 01:04:51;;;;;;;5.88;3.95;;;13.20;99.90;;;;;;4821640;29;20076;-67
2022/07/02 01:07:20;;;;;;;8.75;4.28;;;13.20;99.90;;;;;;4845979;29;20640;-67
2022/07/02 01:12:41;;;;;;;7.43;4.45;;;13.10;99.90;;;;;;4858226;29;20041;-68
2022/07/02 01:15:09;;;;;;;6.15;3.97;;;13.10;99.90;;;;;;4849017;29;20520;-67
2022/07/02 01:17:36;;;;;;;7.72;4.60;;;13.10;99.90;;;;;;4841156;29;20046;-67
2022/07/02 01:20:05;;;;;;;6.05;4.15;;;13.10;99.90;;;;;;4850499;29;20420;-67
2022/07/02 01:22:35;;;;;;;5.53;3.65;;;13.10;99.90;;;;;;4851498;29;20057;-67
2022/07/02 01:25:03;;;;;;;6.25;3.92;;;13.00;99.90;;;;;;4849812;29;20101;-67
2022/07/02 01:27:31;;;;;;;6.85;4.28;;;13.10;99.90;;;;;;4852353;29;20057;-67
2022/07/02 01:29:58;;;;;;;8.25;4.10;;;13.10;99.90;;;;;;4857868;29;20049;-67
2022/07/02 01:32:25;;;;;;;6.15;4.22;;;13.10;99.90;;;;;;4852393;29;20050;-69
2022/07/02 01:35:02;;;;;;;6.68;4.38;;;13.00;99.90;;;;;;4855138;29;20050;-68
2022/07/02 01:37:29;;;;;;;7.60;5.18;;;13.10;99.90;;;;;;4840805;29;20480;-67
2022/07/02 01:39:56;;;;;;;6.97;4.57;;;13.00;99.90;;;;;;4852115;29;20052;-68
2022/07/02 01:42:24;;;;;;;6.35;4.53;;;13.00;99.90;;;;;;4841844;29;20053;-66
2022/07/02 01:44:51;;;;;;;6.95;4.72;;;13.00;99.90;;;;;;4842095;29;20053;-67
2022/07/02 01:47:18;;;;;;;7.05;4.45;;;13.00;99.90;;;;;;4847794;29;20046;-67
2022/07/02 01:49:46;;;;;;;6.88;4.70;;;13.00;99.90;;;;;;4840856;29;20412;-67
2022/07/02 01:52:15;;;;;;;6.10;4.07;;;13.00;99.90;;;;;;4840301;29;20099;-67
2022/07/02 01:54:43;;;;;;;7.78;4.55;;;13.00;99.90;;;;;;4823837;29;20069;-67
2022/07/02 01:57:12;;;;;;;5.82;4.22;;;12.90;99.90;;;;;;4853511;29;20117;-67
2022/07/02 01:59:40;;;;;;;6.47;4.70;;;12.90;99.90;;;;;;4860949;29;20048;-66
2022/07/02 02:02:07;;;;;;;6.55;4.32;;;12.90;99.90;;;;;;4858280;29;20060;-67
2022/07/02 02:04:35;;;;;;;6.95;4.85;;;12.90;99.90;;;;;;4854008;29;20058;-66
2022/07/02 02:07:04;;;;;;;7.90;4.57;;;12.90;99.90;;;;;;4846144;29;20061;-68
2022/07/02 02:09:31;;;;;;;6.63;4.82;;;12.90;99.90;;;;;;4861556;29;20050;-66
2022/07/02 02:11:59;;;;;;;7.40;5.20;;;12.90;99.90;;;;;;4841808;29;20077;-66
2022/07/02 02:14:26;;;;;;;8.70;5.10;;;12.90;99.90;;;;;;4851358;29;20045;-68
2022/07/02 02:16:53;;;;;;;6.55;4.57;;;12.80;99.90;;;;;;4845700;29;20133;-67
2022/07/02 02:19:21;;;;;;;5.47;4.25;;;12.80;99.90;;;;;;4844418;29;20073;-68
2022/07/02 02:21:48;;;;;;;6.20;4.40;;;12.80;99.90;;;;;;4846656;29;20049;-67
2022/07/02 02:24:15;;;;;;;6.70;4.57;;;12.80;99.90;;;;;;4843779;29;20064;-66
2022/07/02 02:26:43;;;;;;;10.55;4.78;;;12.90;99.90;;;;;;4847600;29;20446;-67
2022/07/02 02:29:10;;;;;;;6.13;4.15;;;12.80;99.90;;;;;;4833607;29;20053;-66
2022/07/02 02:31:37;;;;;;;6.95;5.03;;;12.80;99.90;;;;;;4845611;29;20498;-67
2022/07/02 02:34:05;;;;;;;6.55;4.10;;;12.80;99.90;;;;;;4856957;29;20061;-68
2022/07/02 02:36:32;;;;;;;5.70;4.00;;;12.80;99.90;;;;;;4858170;29;20050;-67
2022/07/02 02:39:00;;;;;;;5.32;3.95;;;12.80;99.90;;;;;;4846522;29;20059;-67
2022/07/02 02:41:27;;;;;;;7.32;4.60;;;12.70;99.90;;;;;;4856907;29;20133;-67
2022/07/02 02:43:54;;;;;;;6.03;4.38;;;12.70;99.90;;;;;;4844665;29;20049;-67
2022/07/02 02:46:26;;;;;;;7.63;4.30;;;12.70;99.90;;;;;;4858171;29;20053;-67
2022/07/02 02:48:53;;;;;;;9.32;4.03;;;12.70;99.90;;;;;;4840935;29;20041;-67
2022/07/02 02:51:23;;;;;;;6.13;4.70;;;12.70;99.90;;;;;;4845563;29;20566;-67
2022/07/02 02:53:50;;;;;;;5.93;4.95;;;12.60;99.90;;;;;;4827883;29;20085;-67
2022/07/02 02:56:18;;;;;;;8.15;5.30;;;12.60;99.90;;;;;;4859667;29;20478;-67
2022/07/02 02:58:45;;;;;;;5.85;4.18;;;12.60;99.90;;;;;;4845821;29;20074;-67
2022/07/02 03:01:12;;;;;;;8.68;5.07;;;12.60;99.90;;;;;;4844012;29;20049;-67
2022/07/02 03:03:40;;;;;;;6.28;4.57;;;12.60;99.90;;;;;;4857281;29;20049;-67
2022/07/02 03:06:07;;;;;;;7.80;5.10;;;12.60;99.90;;;;;;4843656;29;20046;-67
2022/07/02 03:08:35;;;;;;;7.03;5.13;;;12.60;99.90;;;;;;4848266;29;20509;-67
2022/07/02 03:11:05;;;;;;;6.70;4.95;;;12.50;99.90;;;;;;4862573;29;20100;-67
2022/07/02 03:13:32;;;;;;;8.88;4.40;;;12.60;99.90;;;;;;4844133;29;20102;-67
2022/07/02 03:16:00;;;;;;;7.22;4.70;;;12.60;99.90;;;;;;4845265;29;20418;-69
2022/07/02 03:18:27;;;;;;;7.22;4.85;;;12.60;99.90;;;;;;4845629;29;20053;-67
2022/07/02 03:20:54;;;;;;;5.97;4.30;;;12.60;99.90;;;;;;4847739;29;20133;-66
2022/07/02 03:23:21;;;;;;;8.30;4.68;;;12.60;99.90;;;;;;4863973;29;20046;-67
2022/07/02 03:25:49;;;;;;;8.23;4.93;;;12.60;99.90;;;;;;4846283;29;20467;-67
2022/07/02 03:28:16;;;;;;;6.32;4.60;;;12.50;99.90;;;;;;4844859;29;20049;-67
2022/07/02 03:30:43;;;;;;;7.13;4.90;;;12.60;99.90;;;;;;4841622;29;20362;-66
2022/07/02 03:33:11;;;;;;;5.82;4.28;;;12.60;99.90;;;;;;4850481;29;20132;-66
2022/07/02 03:35:38;;;;;;;8.73;4.68;;;12.60;99.90;;;;;;4842514;29;20066;-67
2022/07/02 03:38:05;;;;;;;7.60;4.55;;;12.70;99.90;;;;;;4852054;29;20216;-67
2022/07/02 03:40:33;;;;;;;6.43;4.47;;;12.70;99.90;;;;;;4849386;29;20564;-67
2022/07/02 03:43:00;;;;;;;5.85;4.10;;;12.70;99.90;;;;;;4857052;29;20094;-67
2022/07/02 03:45:28;;;;;;;7.43;4.45;;;12.70;99.90;;;;;;4852202;29;20072;-67
2022/07/02 03:47:56;;;;;;;7.07;4.60;;;12.70;99.90;;;;;;4840506;29;20408;-68
2022/07/02 03:50:23;;;;;;;6.30;4.32;;;12.80;99.90;;;;;;4835833;29;20057;-67
2022/07/02 03:52:50;;;;;;;5.93;4.20;;;12.80;99.90;;;;;;4858067;29;20057;-68
2022/07/02 03:55:23;;;;;;;7.57;5.00;;;12.90;99.90;;;;;;4855781;29;20060;-67
2022/07/02 03:57:50;;;;;;;6.68;4.78;;;12.90;99.90;;;;;;4855490;29;20049;-66
2022/07/02 04:00:18;;;;;;;5.60;4.18;;;12.90;99.90;;;;;;4848970;29;20077;-67
2022/07/02 04:02:45;;;;;;;6.60;4.38;;;13.00;99.90;;;;;;4848953;29;20453;-67
2022/07/02 04:05:12;;;;;;;7.65;4.53;;;13.00;99.90;;;;;;4839448;29;20509;-67
2022/07/02 04:07:40;;;;;;;6.57;4.22;;;13.00;99.90;;;;;;4851514;29;20106;-67
2022/07/02 04:10:07;;;;;;;9.45;4.20;;;13.10;99.90;;;;;;4855879;29;20113;-67
2022/07/02 04:12:35;;;;;;;6.97;4.10;;;13.10;99.90;;;;;;4854496;29;20053;-67
2022/07/02 04:15:03;;;;;;;7.50;4.57;;;13.20;99.90;;;;;;4855071;29;20113;-67
2022/07/02 04:17:30;;;;;;;7.97;4.43;;;13.20;99.90;;;;;;4867085;29;20084;-68
2022/07/02 04:19:58;;;;;;;7.28;4.35;;;13.30;99.90;;;;;;4868889;29;20057;-67
2022/07/02 04:22:25;;;;;;;7.65;4.40;;;13.30;99.90;;;;;;4855046;29;20144;-68
2022/07/02 04:24:53;;;;;;;7.60;5.00;;;13.30;99.90;;;;;;4870142;29;20048;-67
2022/07/02 04:27:20;;;;;;;8.18;4.20;;;13.50;99.90;;;;;;4839335;29;20045;-67
2022/07/02 04:29:48;;;;;;;7.22;4.53;;;13.40;99.90;;;;;;4855171;29;20049;-68
2022/07/02 04:32:15;;;;;;;7.47;4.35;;;13.50;99.90;;;;;;4836119;29;20049;-67
2022/07/02 04:34:42;;;;;;;7.30;4.25;;;13.50;99.90;;;;;;4861443;29;20567;-67
2022/07/02 04:37:10;;;;;;;7.60;3.92;;;13.50;99.90;;;;;;4854617;29;20173;-67
2022/07/02 04:39:37;;;;;;;6.50;4.60;;;13.60;99.90;;;;;;4856201;29;20050;-68
2022/07/02 04:42:05;;;;;;;7.35;4.45;;;13.60;99.90;;;;;;4839710;29;20050;-67
2022/07/02 04:44:32;;;;;;;7.07;4.40;;;13.70;99.90;;;;;;4870383;29;20108;-67
2022/07/02 04:47:06;;;;;;;5.93;4.03;;;13.80;99.90;;;;;;4854607;29;20057;-67
2022/07/02 04:49:34;;;;;;;5.18;3.58;;;13.80;99.90;;;;;;4856232;29;20080;-67
2022/07/02 04:52:01;;;;;;;5.00;3.50;;;13.90;99.90;;;;;;4852226;29;20067;-68
2022/07/02 04:54:29;;;;;;;6.55;4.85;;;14.00;99.90;;;;;;4848755;29;20041;-67
2022/07/02 04:56:56;;;;;;;7.22;4.72;;;14.00;99.90;;;;;;4851408;29;20500;-67
2022/07/02 04:59:23;;;;;;;7.47;5.18;;;14.10;99.90;;;;;;4850616;29;20037;-67
2022/07/02 05:01:55;;;;;;;9.30;4.60;;;14.20;99.90;;;;;;4863156;29;20419;-67
2022/07/02 05:04:23;;;;;;;8.85;5.53;;;14.30;99.90;;;;;;4852174;29;20428;-67
2022/07/02 05:06:50;;;;;;;6.57;4.20;;;14.30;99.90;;;;;;4865481;29;20034;-67
2022/07/02 05:09:17;;;;;;;5.75;3.78;;;14.40;99.90;;;;;;4855989;29;20119;-67
2022/07/02 05:11:45;;;;;;;5.70;3.50;;;14.50;99.90;;;;;;4853461;29;20048;-68
2022/07/02 05:14:12;;;;;;;9.75;4.40;;;14.50;99.90;;;;;;4855737;29;20082;-67
2022/07/02 05:16:40;;;;;;;5.80;3.78;;;14.60;99.90;;;;;;4854537;29;20050;-67
2022/07/02 05:19:07;;;;;;;5.85;3.88;;;14.70;99.90;;;;;;4842987;29;20398;-67
2022/07/02 05:21:36;;;;;;;6.35;3.88;;;14.70;99.90;;;;;;4843838;29;20412;-67
2022/07/02 05:24:04;;;;;;;5.93;4.22;;;14.70;99.90;;;;;;4835373;29;20046;-67
2022/07/02 05:26:31;;;;;;;7.18;4.25;;;14.80;99.90;;;;;;4843606;29;20414;-67
2022/07/02 05:28:58;;;;;;;7.57;5.28;;;14.90;99.90;;;;;;4850144;29;20073;-67
2022/07/02 05:31:26;;;;;;;7.43;4.97;;;15.00;99.90;;;;;;4848366;29;20046;-67
2022/07/02 05:33:53;;;;;;;7.97;4.85;;;15.00;99.90;;;;;;4854314;29;20619;-67
2022/07/02 05:36:20;;;;;;;7.95;4.40;;;15.10;99.90;;;;;;4858646;29;20393;-67
2022/07/02 05:38:47;;;;;;;8.20;5.68;;;15.10;99.90;;;;;;4850415;29;20433;-67
2022/07/02 05:41:15;;;;;;;6.07;4.18;;;15.20;99.90;;;;;;4854718;29;20154;-66
2022/07/02 05:43:42;;;;;;;7.35;4.68;;;15.30;99.90;;;;;;4849010;29;20061;-67
2022/07/02 05:46:10;;;;;;;7.18;3.97;;;15.40;99.90;;;;;;4861943;29;20528;-67
2022/07/02 05:48:37;;;;;;;5.10;3.72;;;15.40;99.90;;;;;;4847529;29;20102;-67
2022/07/02 05:51:04;;;;;;;7.53;4.43;;;15.50;99.90;;;;;;4855326;29;20749;-66
2022/07/02 05:53:32;;;;;;;7.00;4.03;;;15.60;99.90;;;;;;4856045;29;20053;-68
2022/07/02 05:55:59;;;;;;;6.85;3.50;;;15.60;99.90;;;;;;4858910;29;20054;-66
2022/07/02 05:58:27;;;;;;;7.88;4.32;;;15.70;99.90;;;;;;4858132;29;20053;-67
2022/07/02 06:00:54;;;;;;;6.75;4.13;;;15.80;99.90;;;;;;4849245;29;20085;-67
2022/07/02 06:03:21;;;;;;;5.10;3.80;;;15.80;99.90;;;;;;4849828;29;20378;-67
2022/07/02 06:08:34;;;;;;;9.02;5.18;;;16.00;99.90;;;;;;4844785;29;20046;-67
2022/07/02 06:11:02;;;;;;;6.20;4.05;;;16.10;99.90;;;;;;4849874;29;20054;-68
2022/07/02 06:13:29;;;;;;;6.32;4.30;;;16.10;99.90;;;;;;4858469;29;20052;-68
2022/07/02 06:15:57;;;;;;;6.75;4.30;;;16.20;99.90;;;;;;4857539;29;20136;-68
2022/07/02 06:18:24;;;;;;;4.55;2.97;;;16.30;99.90;;;;;;4856378;29;20519;-68
2022/07/02 06:20:52;;;;;;;7.63;3.50;;;16.40;99.90;;;;;;4856029;29;20412;-67
2022/07/02 06:23:22;;;;;;;4.45;2.70;;;16.50;99.90;;;;;;4858019;29;20049;-67
2022/07/02 06:25:50;;;;;;;6.32;2.80;;;16.50;99.90;;;;;;4857862;29;20053;-68
2022/07/02 06:28:17;;;;;;;4.95;2.70;;;16.60;99.90;;;;;;4850557;29;20048;-68
2022/07/02 06:30:45;;;;;;;5.18;2.88;;;16.70;99.90;;;;;;4856639;29;20516;-68
2022/07/02 06:33:12;;;;;;;5.05;2.75;;;16.70;99.90;;;;;;4855858;29;20097;-68
2022/07/02 06:35:42;;;;;;;4.45;2.80;;;16.80;99.90;;;;;;4857129;29;20180;-68
2022/07/02 06:38:11;;;;;;;6.93;3.60;;;16.90;99.90;;;;;;4858348;29;20531;-68
2022/07/02 06:40:38;;;;;;;6.95;4.60;;;17.00;99.90;;;;;;4870210;29;20057;-69
2022/07/02 06:43:06;;;;;;;8.00;4.75;;;17.00;99.90;;;;;;4857745;29;20508;-68
2022/07/02 06:45:33;;;;;;;5.35;3.00;;;17.10;99.90;;;;;;4855101;29;20045;-67
2022/07/02 06:48:00;;;;;;;4.32;2.40;;;17.20;99.90;;;;;;4857648;29;20098;-68
2022/07/02 06:50:28;;;;;;;5.18;2.80;;;17.30;99.90;;;;;;4853876;29;20077;-67
2022/07/02 06:53:01;;;;;;;4.93;2.30;;;17.30;99.90;;;;;;4849849;29;20053;-67
2022/07/02 06:55:28;;;;;;;5.07;2.90;;;17.40;99.90;;;;;;4854936;29;20052;-68
2022/07/02 06:57:56;;;;;;;5.75;3.38;;;17.40;99.90;;;;;;4867046;29;20057;-68
2022/07/02 07:00:23;;;;;;;5.07;3.53;;;17.50;99.90;;;;;;4852054;29;20636;-67
2022/07/02 07:02:51;;;;;;;8.55;5.20;;;17.60;99.90;;;;;;4842717;29;20420;-68
2022/07/02 07:05:22;;;;;;;5.28;2.78;;;17.70;99.90;;;;;;4843827;29;20050;-69
2022/07/02 07:07:49;;;;;;;3.90;2.20;;;17.80;99.90;;;;;;4834414;29;20050;-68
2022/07/02 07:10:16;;;;;;;3.90;1.90;;;17.80;99.90;;;;;;4836435;29;20532;-68
2022/07/02 07:12:44;;;;;;;6.38;3.50;;;18.00;99.90;;;;;;4840652;29;20061;-68
2022/07/02 07:15:11;;;;;;;8.68;4.30;;;18.10;99.90;;;;;;4846605;29;20057;-68
2022/07/02 07:17:38;;;;;;;4.43;2.60;;;18.20;99.90;;;;;;4852121;29;20057;-68
2022/07/02 07:20:16;;;;;;;5.85;3.10;;;18.30;99.90;;;;;;4842835;29;20049;-69
2022/07/02 07:22:44;;;;;;;4.32;2.40;;;18.40;99.90;;;;;;4843278;29;20148;-68
2022/07/02 07:25:12;;;;;;;4.43;1.88;;;18.50;99.90;;;;;;4846084;29;20049;-68
2022/07/02 07:27:39;;;;;;;2.25;1.40;;;18.60;99.90;;;;;;4824720;29;20057;-68
2022/07/02 07:30:07;;;;;;;2.85;1.50;;;18.60;99.90;;;;;;4853811;29;20414;-67
2022/07/02 07:32:34;;;;;;;4.18;2.20;;;18.70;99.90;;;;;;4853347;29;20081;-68
2022/07/02 07:35:02;;;;;;;4.65;2.30;;;18.80;99.90;;;;;;4835887;29;20101;-68
2022/07/02 07:37:29;;;;;;;5.20;2.10;;;18.70;99.90;;;;;;4848833;29;20424;-68
2022/07/02 07:39:56;;;;;;;5.05;2.53;;;18.80;99.90;;;;;;4855850;29;20382;-68
2022/07/02 07:42:25;;;;;;;3.45;2.00;;;18.90;99.90;;;;;;4843922;29;20045;-68
2022/07/02 07:44:52;;;;;;;3.55;1.90;;;18.90;99.90;;;;;;4845498;29;20104;-68
2022/07/02 07:47:20;;;;;;;2.70;1.55;;;19.00;99.90;;;;;;4851610;29;20053;-67
2022/07/02 07:49:47;;;;;;;4.43;1.60;;;19.00;99.90;;;;;;4836623;29;20560;-67
2022/07/02 07:52:14;;;;;;;5.22;1.80;;;19.10;99.90;;;;;;4833777;29;20050;-67
2022/07/02 07:54:42;;;;;;;3.22;1.42;;;19.20;99.90;;;;;;4851851;29;20053;-67
2022/07/02 07:57:10;;;;;;;4.18;1.70;;;19.30;99.90;;;;;;4838176;29;20518;-68
2022/07/02 07:59:37;;;;;;;3.28;1.80;;;19.40;99.90;;;;;;4861897;29;20160;-68
2022/07/02 08:02:05;;;;;;;5.20;2.60;;;19.50;99.90;;;;;;4848255;29;20129;-68
2022/07/02 08:04:32;;;;;;;3.88;1.83;;;19.70;99.90;;;;;;4854755;29;20073;-68
2022/07/02 08:06:59;;;;;;;3.95;1.55;;;19.70;99.90;;;;;;4852600;29;20056;-68
2022/07/02 08:09:27;;;;;;;4.10;2.53;;;19.80;99.90;;;;;;4856533;29;20466;-67
2022/07/02 08:11:54;;;;;;;4.07;2.00;;;19.80;99.90;;;;;;4855118;29;20053;-67
2022/07/02 08:14:21;;;;;;;5.57;1.70;;;19.90;99.90;;;;;;4856650;29;20481;-67
2022/07/02 08:16:49;;;;;;;3.33;1.60;;;20.00;99.90;;;;;;4851007;29;20083;-67
2022/07/02 08:19:17;;;;;;;3.88;1.98;;;20.10;99.90;;;;;;4853301;29;20391;-67
2022/07/02 08:21:44;;;;;;;5.28;2.70;;;20.30;99.90;;;;;;4853870;29;20963;-67
2022/07/02 08:24:11;;;;;;;5.65;2.42;;;20.40;99.90;;;;;;4852705;29;20053;-68
2022/07/02 08:26:38;;;;;;;7.03;2.85;;;20.50;99.90;;;;;;4853204;29;20505;-68
2022/07/02 08:29:06;;;;;;;4.50;2.47;;;20.60;99.90;;;;;;4847551;29;20171;-68
2022/07/02 08:31:33;;;;;;;4.95;1.80;;;20.60;99.90;;;;;;4838879;29;20052;-68
2022/07/02 08:34:00;;;;;;;9.38;1.95;;;20.70;99.90;;;;;;4848854;29;20508;-67
2022/07/02 08:36:28;;;;;;;4.35;2.20;;;20.60;99.90;;;;;;4852935;29;20129;-67
2022/07/02 08:38:55;;;;;;;5.72;2.60;;;20.60;99.90;;;;;;4869017;29;20473;-67
2022/07/02 08:41:23;;;;;;;5.47;2.80;;;20.60;99.90;;;;;;4853247;29;20045;-67
2022/07/02 08:43:53;;;;;;;4.90;2.40;;;20.60;99.90;;;;;;4852591;29;20041;-67
2022/07/02 08:46:22;;;;;;;5.55;2.55;;;20.70;99.90;;;;;;4856445;29;20049;-67
2022/07/02 08:48:50;;;;;;;4.70;2.78;;;20.90;99.90;;;;;;4853920;29;20560;-67
2022/07/02 08:51:23;;;;;;;4.68;2.20;;;20.90;99.90;;;;;;4845567;29;20073;-68
2022/07/02 08:53:50;;;;;;;6.53;3.20;;;21.00;99.90;;;;;;4837418;29;20535;-67
2022/07/02 08:56:20;;;;;;;5.60;3.28;;;21.10;99.90;;;;;;4850839;29;20080;-67
2022/07/02 08:58:50;;;;;;;13.60;8.63;;;21.40;99.90;;;;;;4856242;29;20050;-67
2022/07/02 09:01:18;;;;;;;6.55;2.88;;;21.50;99.90;;;;;;4852931;29;20517;-66
2022/07/02 09:03:48;;;;;;;4.53;1.90;;;21.70;99.90;;;;;;4853267;29;20508;-66
2022/07/02 09:06:18;;;;;;;7.03;3.78;;;21.80;99.90;;;;;;4849236;29;20109;-65
2022/07/02 09:08:45;;;;;;;5.50;2.88;;;21.80;99.90;;;;;;4853216;29;20580;-65
2022/07/02 09:11:14;;;;;;;5.93;3.38;;;21.90;99.90;;;;;;4854885;29;20595;-66
2022/07/02 09:13:43;;;;;;;5.32;2.08;;;22.00;99.90;;;;;;4859896;29;20073;-66
2022/07/02 09:16:10;;;;;;;3.78;1.50;;;21.90;99.90;;;;;;4860101;29;20053;-66
2022/07/02 09:18:38;;;;;;;4.22;1.70;;;22.10;99.90;;;;;;4852103;29;20056;-67
2022/07/02 09:21:10;;;;;;;3.88;1.67;;;22.10;99.90;;;;;;4853645;29;20101;-66
2022/07/02 09:23:46;;;;;;;3.95;2.40;;;22.00;99.90;;;;;;4859371;29;20045;-66
2022/07/02 09:26:21;;;;;;;5.07;2.10;;;22.00;99.90;;;;;;4857470;29;20152;-66
2022/07/02 09:28:56;;;;;;;4.75;1.70;;;22.00;99.90;;;;;;4872155;29;20052;-67
2022/07/02 09:31:23;;;;;;;5.78;3.38;;;22.20;99.90;;;;;;4853184;29;20138;-66
2022/07/02 09:33:51;;;;;;;3.08;1.70;;;22.40;99.90;;;;;;4848549;29;20422;-67
2022/07/02 09:36:19;;;;;;;4.18;1.38;;;22.60;99.90;;;;;;4858484;29;20492;-67
2022/07/02 09:38:48;;;;;;;5.80;1.40;;;22.60;99.90;;;;;;4841651;29;20489;-67
2022/07/02 09:41:26;;;;;;;5.88;1.80;;;22.70;99.90;;;;;;4856444;29;20128;-66
2022/07/02 09:43:59;;;;;;;3.20;1.40;;;22.90;99.90;;;;;;4855757;29;20045;-68
2022/07/02 09:46:27;;;;;;;4.68;2.00;;;23.10;99.90;;;;;;4856825;29;20424;-68
2022/07/02 09:49:05;;;;;;;5.60;3.22;;;23.30;99.90;;;;;;4854693;29;20053;-66
2022/07/02 09:51:44;;;;;;;4.47;2.05;;;23.40;99.90;;;;;;4854703;29;20489;-66
2022/07/02 09:54:21;;;;;;;3.78;1.52;;;23.50;99.90;;;;;;4872803;29;20061;-66
2022/07/02 09:56:56;;;;;;;2.67;1.10;;;23.70;99.90;;;;;;4859161;29;20057;-66
2022/07/02 09:59:24;;;;;;;3.20;1.73;;;23.70;99.90;;;;;;4853686;29;20049;-65
2022/07/02 10:01:52;;;;;;;4.45;2.00;;;23.70;99.90;;;;;;4853027;29;20045;-68
2022/07/02 10:04:33;;;;;;;6.97;4.43;;;23.80;99.90;;;;;;4850346;29;20046;-68
2022/07/02 10:07:00;;;;;;;6.82;1.60;;;23.70;99.90;;;;;;4849018;29;20041;-68
2022/07/02 10:09:28;;;;;;;3.60;2.00;;;23.80;99.90;;;;;;4856227;29;20421;-68
2022/07/02 10:11:57;;;;;;;8.38;4.43;;;23.90;99.90;;;;;;4843489;29;20053;-68
2022/07/02 10:14:28;;;;;;;2.60;1.40;;;23.80;99.90;;;;;;4854074;29;20156;-68
2022/07/02 10:16:56;;;;;;;5.07;1.40;;;23.90;99.90;;;;;;4836710;29;20421;-68
2022/07/02 10:19:24;;;;;;;4.65;1.65;;;24.10;99.90;;;;;;4829837;29;20553;-68
2022/07/02 10:21:52;;;;;;;2.97;1.23;;;24.20;99.90;;;;;;4856488;29;20132;-67
2022/07/02 10:24:25;;;;;;;4.85;2.55;;;24.20;99.90;;;;;;4866651;29;20049;-66
2022/07/02 10:26:54;;;;;;;2.33;1.38;;;24.40;99.90;;;;;;4839466;29;20077;-67
2022/07/02 10:29:22;;;;;;;2.30;1.38;;;24.40;99.90;;;;;;4856119;29;20392;-67
2022/07/02 10:32:06;;;;;;;2.03;1.17;;;24.50;99.90;;;;;;4849153;29;20046;-67
2022/07/02 10:34:54;;;;;;;3.60;1.98;;;24.50;99.90;;;;;;4852328;29;20401;-66
2022/07/02 10:37:25;;;;;;;3.35;1.55;;;24.60;99.90;;;;;;4840670;29;20093;-69
2022/07/02 10:40:02;;;;;;;1.65;0.98;;;24.50;99.90;;;;;;4843680;29;20060;-66
2022/07/02 10:42:49;;;;;;;2.50;1.20;;;24.60;99.90;;;;;;4852758;29;20516;-67
2022/07/02 10:45:19;;;;;;;2.20;1.17;;;24.80;99.90;;;;;;4854299;29;20052;-67
2022/07/02 10:47:53;;;;;;;3.00;1.50;;;24.80;99.90;;;;;;4857804;29;20056;-66
2022/07/02 10:50:26;;;;;;;9.10;2.42;;;24.90;99.90;;;;;;4852082;29;20234;-65
2022/07/02 10:52:54;;;;;;;5.05;2.25;;;25.10;99.90;;;;;;4871505;29;20504;-67
2022/07/02 10:55:28;;;;;;;1.92;1.10;;;25.30;99.90;;;;;;4850771;29;20082;-67
2022/07/02 10:58:01;;;;;;;4.65;1.98;;;25.40;99.90;;;;;;4848590;29;20065;-66
2022/07/02 11:00:29;;;;;;;4.10;1.33;;;25.30;99.90;;;;;;4848041;29;20111;-67
2022/07/02 11:03:28;;;;;;;2.17;1.30;;;25.20;99.90;;;;;;4847785;29;20053;-66
2022/07/02 11:06:21;;;;;;;3.88;1.73;;;25.30;99.90;;;;;;4848937;29;20049;-65
2022/07/02 11:08:56;;;;;;;3.95;1.52;;;25.40;99.90;;;;;;4845021;29;20056;-68
2022/07/02 11:11:36;;;;;;;2.97;1.20;;;25.60;99.90;;;;;;4854595;29;20045;-67
2022/07/02 11:14:11;;;;;;;2.15;1.10;;;25.80;99.90;;;;;;4852271;29;20041;-66
2022/07/02 11:16:41;;;;;;;3.95;1.35;;;25.80;99.90;;;;;;4849643;29;20049;-65
2022/07/02 11:19:19;;;;;;;3.85;1.98;;;25.70;99.90;;;;;;4846048;29;20382;-67
2022/07/02 11:21:50;;;;;;;2.13;1.02;;;25.80;99.90;;;;;;4862254;29;20073;-68
2022/07/02 11:24:27;;;;;;;5.00;1.30;;;25.90;99.90;;;;;;4848484;29;20053;-65
2022/07/02 11:26:55;;;;;;;3.75;1.10;;;26.00;99.90;;;;;;4857005;29;20555;-68
2022/07/02 11:29:22;;;;;;;5.32;1.30;;;26.00;99.90;;;;;;4831551;29;20529;-66
2022/07/02 11:31:52;;;;;;;2.25;1.20;;;26.10;99.90;;;;;;4835967;29;20061;-67
2022/07/02 11:34:25;;;;;;;3.65;1.20;;;26.30;99.90;;;;;;4840495;29;20045;-68
2022/07/02 11:36:53;;;;;;;2.25;1.13;;;26.40;99.90;;;;;;4856282;29;20053;-66
2022/07/02 11:39:24;;;;;;;3.83;1.60;;;26.50;99.90;;;;;;4856468;29;20061;-66
2022/07/02 11:41:52;;;;;;;2.58;1.10;;;26.50;99.80;;;;;;4856000;29;20128;-67
2022/07/02 11:44:24;;;;;;;2.75;1.25;;;26.60;98.40;;;;;;4839577;29;20493;-67
2022/07/02 11:46:56;;;;;;;2.33;1.00;;;26.80;97.80;;;;;;4856688;29;20404;-66
2022/07/02 11:49:28;;;;;;;1.67;0.90;;;27.30;95.90;;;;;;4848509;29;20385;-67
2022/07/02 11:51:56;;;;;;;2.65;1.20;;;27.50;94.50;;;;;;4853415;29;20037;-66
2022/07/02 11:54:25;;;;;;;3.97;1.20;;;27.60;95.10;;;;;;4853034;29;20057;-67
2022/07/02 11:56:53;;;;;;;2.40;0.95;;;27.90;93.20;;;;;;4861479;29;20228;-66
2022/07/02 11:59:23;;;;;;;2.83;1.08;;;28.10;93.30;;;;;;4854232;29;20069;-66
2022/07/02 12:01:52;;;;;;;2.90;1.27;;;28.20;92.30;;;;;;4849703;29;20136;-67
2022/07/02 12:04:22;;;;;;;1.35;0.70;;;28.50;89.50;;;;;;4840558;29;20521;-67
2022/07/02 12:06:52;;;;;;;4.05;0.77;;;28.70;86.30;;;;;;4854619;29;20049;-66
2022/07/02 12:09:25;;;;;;;1.77;0.82;;;28.90;85.20;;;;;;4855263;29;20456;-65
2022/07/02 12:11:56;;;;;;;7.15;4.07;;;29.20;87.40;;;;;;4846344;29;20444;-66
2022/07/02 12:14:28;;;;;;;2.60;1.42;;;29.40;88.70;;;;;;4848467;29;20481;-66
2022/07/02 12:16:57;;;;;;;1.70;0.98;;;29.50;90.30;;;;;;4835172;29;20063;-66
2022/07/02 12:19:32;;;;;;;5.55;2.55;;;30.00;86.50;;;;;;4850307;29;20053;-66
2022/07/02 12:22:00;;;;;;;1.98;1.00;;;29.90;84.30;;;;;;4844108;29;20141;-67
2022/07/02 12:24:35;;;;;;;3.58;1.67;;;30.20;83.90;;;;;;4855281;29;20144;-67
2022/07/02 12:27:08;;;;;;;1.75;1.00;;;30.90;82.70;;;;;;4854415;29;20552;-67
2022/07/02 12:29:54;;;;;;;2.25;1.00;;;31.00;81.30;;;;;;4849269;29;20053;-66
2022/07/02 12:32:26;;;;;;;1.80;0.90;;;31.50;80.70;;;;;;4848390;29;20054;-68
2022/07/02 12:34:55;;;;;;;3.47;1.00;;;31.50;77.10;;;;;;4854991;29;20045;-65
2022/07/02 12:37:29;;;;;;;1.27;0.85;;;31.70;77.90;;;;;;4856105;29;20531;-67
2022/07/02 12:40:03;;;;;;;3.30;1.10;;;30.90;76.90;;;;;;4863170;29;20058;-67
2022/07/02 12:42:33;;;;;;;3.45;1.00;;;31.80;76.90;;;;;;4848238;29;20049;-67
2022/07/02 12:45:05;;;;;;;4.15;1.15;;;32.30;75.60;;;;;;4848206;29;20053;-67
2022/07/02 12:47:35;;;;;;;3.22;1.17;;;32.60;77.40;;;;;;4841665;29;20033;-65
2022/07/02 12:50:10;;;;;;;1.95;1.08;;;32.80;73.90;;;;;;4846875;29;20056;-65
2022/07/02 12:52:54;;;;;;;2.45;1.30;;;32.70;72.40;;;;;;4852158;29;20137;-67
2022/07/02 12:55:26;;;;;;;2.60;1.02;;;33.10;71.90;;;;;;4856103;29;20462;-67
2022/07/02 12:57:54;;;;;;;2.83;0.90;;;33.40;71.40;;;;;;4845875;29;20549;-67
2022/07/02 13:00:23;;;;;;;2.33;1.30;;;33.70;70.80;;;;;;4854636;29;20073;-66
2022/07/02 13:02:58;;;;;;;2.53;1.30;;;33.80;69.00;;;;;;4845769;29;20046;-67